Главная страница
METAR-TAF:

METAR-TAF

Аэропорты :

Eagle, Аляска, США

Игл

широта: 64-46-35N, долгота: 141-09-03W, высота над уровнем моря: 268 м

Текущие метеонаблюдения

Эта сводка был подготовлена 23 минут назад, в 03:53 UTC
Ветер 3 Узел от юго-восточный
Температура -5°C
Влажность 79%
Давление 1006 hPa
Видимость: 16.1 км
Сплошная облачность на высоте 2700 фута

METAR: PAEG 230353Z AUTO 14003KT 10SM OVC027 M05/M08 A2971 RMK AO2 SLP074 T10501078 TSNO

Время: 19:16 (04:16 UTC)


TAF: отсутствует

Метеонаблюдения и прогнозы для более 4000 аэропортов (сводки METAR и TAF).

Имеющиеся станции представлены на карте желтыми и красными точками.

Чтобы увидеть название станции, наведите на нее мышь.

Затем щелкните, чтобы увидеть метеонаблюдения и метеопрогнозы.

Управление картой: чтобы увеличить масштаб, щелкните зеленые кнопки с черным крестиком; чтобы уменьшить масштаб, щелкните зеленую кнопку с тире; для просмотра соседних карт щелкайте зеленые стрелки.


METAR-TAF: